sensor_id;sensor_type;location;lat;lon;timestamp;pressure;altitude;pressure_sealevel;temperature;humidity
56174;BME280;42058;52.308;20.924;2022-09-17T00:00:46;99310.77;;;11.47;100.00
56174;BME280;42058;52.308;20.924;2022-09-17T00:03:15;99313.88;;;11.47;100.00
56174;BME280;42058;52.308;20.924;2022-09-17T00:05:42;99316.52;;;11.47;100.00
56174;BME280;42058;52.308;20.924;2022-09-17T00:08:11;99313.95;;;11.45;100.00
56174;BME280;42058;52.308;20.924;2022-09-17T00:10:41;99319.22;;;11.45;100.00
56174;BME280;42058;52.308;20.924;2022-09-17T00:13:09;99314.02;;;11.44;100.00
56174;BME280;42058;52.308;20.924;2022-09-17T00:15:41;99313.95;;;11.45;100.00
56174;BME280;42058;52.308;20.924;2022-09-17T00:18:09;99318.68;;;11.47;100.00
56174;BME280;42058;52.308;20.924;2022-09-17T00:20:39;99320.00;;;11.47;100.00
56174;BME280;42058;52.308;20.924;2022-09-17T00:23:08;99310.23;;;11.49;100.00
56174;BME280;42058;52.308;20.924;2022-09-17T00:25:36;99320.33;;;11.50;100.00
56174;BME280;42058;52.308;20.924;2022-09-17T00:28:06;99319.02;;;11.50;100.00
56174;BME280;42058;52.308;20.924;2022-09-17T00:30:33;99315.58;;;11.48;100.00
56174;BME280;42058;52.308;20.924;2022-09-17T00:32:59;99322.56;;;11.49;100.00
56174;BME280;42058;52.308;20.924;2022-09-17T00:35:26;99313.48;;;11.46;100.00
56174;BME280;42058;52.308;20.924;2022-09-17T00:37:53;99316.52;;;11.47;100.00
56174;BME280;42058;52.308;20.924;2022-09-17T00:40:19;99317.77;;;11.48;100.00
56174;BME280;42058;52.308;20.924;2022-09-17T00:42:46;99321.65;;;11.50;100.00
56174;BME280;42058;52.308;20.924;2022-09-17T00:45:12;99321.17;;;11.50;100.00
56174;BME280;42058;52.308;20.924;2022-09-17T00:47:49;99324.19;;;11.51;100.00
56174;BME280;42058;52.308;20.924;2022-09-17T00:50:28;99325.50;;;11.51;100.00
56174;BME280;42058;52.308;20.924;2022-09-17T00:53:05;99320.33;;;11.50;100.00
56174;BME280;42058;52.308;20.924;2022-09-17T00:55:39;99331.78;;;11.49;100.00
56174;BME280;42058;52.308;20.924;2022-09-17T00:58:19;99327.97;;;11.46;100.00
56174;BME280;42058;52.308;20.924;2022-09-17T01:00:47;99339.05;;;11.44;100.00
56174;BME280;42058;52.308;20.924;2022-09-17T01:03:14;99328.58;;;11.42;100.00
56174;BME280;42058;52.308;20.924;2022-09-17T01:05:48;99330.77;;;11.43;100.00
56174;BME280;42058;52.308;20.924;2022-09-17T01:23:43;99333.98;;;11.30;100.00
56174;BME280;42058;52.308;20.924;2022-09-17T01:34:55;99324.19;;;11.24;100.00
56174;BME280;42058;52.308;20.924;2022-09-17T01:37:33;99326.52;;;11.21;100.00
56174;BME280;42058;52.308;20.924;2022-09-17T01:40:11;99325.27;;;11.20;100.00
56174;BME280;42058;52.308;20.924;2022-09-17T01:42:53;99330.59;;;11.18;100.00
56174;BME280;42058;52.308;20.924;2022-09-17T01:48:12;99328.26;;;11.12;100.00
56174;BME280;42058;52.308;20.924;2022-09-17T01:50:49;99332.34;;;11.09;100.00
56174;BME280;42058;52.308;20.924;2022-09-17T01:53:20;99327.98;;;11.08;100.00
56174;BME280;42058;52.308;20.924;2022-09-17T01:55:50;99332.34;;;11.09;100.00
56174;BME280;42058;52.308;20.924;2022-09-17T01:58:27;99324.51;;;11.07;100.00
56174;BME280;42058;52.308;20.924;2022-09-17T02:00:59;99331.56;;;11.07;100.00
56174;BME280;42058;52.308;20.924;2022-09-17T02:03:31;99331.16;;;11.06;100.00
56174;BME280;42058;52.308;20.924;2022-09-17T02:06:16;99328.59;;;11.04;100.00
56174;BME280;42058;52.308;20.924;2022-09-17T02:08:49;99327.44;;;11.01;100.00
56174;BME280;42058;52.308;20.924;2022-09-17T02:11:22;99333.67;;;10.99;100.00
56174;BME280;42058;52.308;20.924;2022-09-17T02:14:07;99328.17;;;10.94;100.00
56174;BME280;42058;52.308;20.924;2022-09-17T02:16:36;99325.16;;;10.93;100.00
56174;BME280;42058;52.308;20.924;2022-09-17T02:19:26;99326.00;;;10.94;100.00
56174;BME280;42058;52.308;20.924;2022-09-17T02:27:52;99323.97;;;10.90;100.00
56174;BME280;42058;52.308;20.924;2022-09-17T02:30:38;99325.42;;;10.87;100.00
56174;BME280;42058;52.308;20.924;2022-09-17T02:33:06;99322.55;;;10.83;100.00
56174;BME280;42058;52.308;20.924;2022-09-17T02:35:35;99325.70;;;10.81;100.00
56174;BME280;42058;52.308;20.924;2022-09-17T02:38:02;99318.28;;;10.81;100.00
56174;BME280;42058;52.308;20.924;2022-09-17T02:40:32;99316.97;;;10.81;100.00
56174;BME280;42058;52.308;20.924;2022-09-17T02:43:22;99320.38;;;10.83;100.00
56174;BME280;42058;52.308;20.924;2022-09-17T02:51:53;99323.92;;;10.82;100.00
56174;BME280;42058;52.308;20.924;2022-09-17T02:57:39;99314.59;;;10.74;100.00
56174;BME280;42058;52.308;20.924;2022-09-17T03:00:16;99314.82;;;10.70;100.00
56174;BME280;42058;52.308;20.924;2022-09-17T03:03:03;99314.95;;;10.67;100.00
56174;BME280;42058;52.308;20.924;2022-09-17T03:05:29;99319.80;;;10.66;100.00
56174;BME280;42058;52.308;20.924;2022-09-17T03:07:56;99319.90;;;10.64;100.00
56174;BME280;42058;52.308;20.924;2022-09-17T03:10:24;99323.37;;;10.65;100.00
56174;BME280;42058;52.308;20.924;2022-09-17T03:12:52;99326.91;;;10.64;100.00
56174;BME280;42058;52.308;20.924;2022-09-17T03:15:18;99327.38;;;10.63;100.00
56174;BME280;42058;52.308;20.924;2022-09-17T03:17:44;99337.97;;;10.62;100.00
56174;BME280;42058;52.308;20.924;2022-09-17T03:20:10;99323.63;;;10.58;100.00
56174;BME280;42058;52.308;20.924;2022-09-17T03:22:36;99325.47;;;10.56;100.00
56174;BME280;42058;52.308;20.924;2022-09-17T03:25:03;99327.32;;;10.54;100.00
56174;BME280;42058;52.308;20.924;2022-09-17T03:27:30;99324.22;;;10.55;100.00
56174;BME280;42058;52.308;20.924;2022-09-17T03:29:56;99323.37;;;10.54;100.00
56174;BME280;42058;52.308;20.924;2022-09-17T03:32:22;99319.43;;;10.54;100.00
56174;BME280;42058;52.308;20.924;2022-09-17T03:34:48;99319.37;;;10.56;100.00
56174;BME280;42058;52.308;20.924;2022-09-17T03:37:14;99315.48;;;10.54;100.00
56174;BME280;42058;52.308;20.924;2022-09-17T03:39:40;99308.97;;;10.53;100.00
56174;BME280;42058;52.308;20.924;2022-09-17T03:42:06;99316.95;;;10.51;100.00
56174;BME280;42058;52.308;20.924;2022-09-17T03:44:32;99314.83;;;10.49;100.00
56174;BME280;42058;52.308;20.924;2022-09-17T03:46:58;99313.52;;;10.49;100.00
56174;BME280;42058;52.308;20.924;2022-09-17T03:49:24;99320.09;;;10.49;100.00
56174;BME280;42058;52.308;20.924;2022-09-17T03:51:50;99315.23;;;10.50;100.00
56174;BME280;42058;52.308;20.924;2022-09-17T03:54:17;99316.55;;;10.50;100.00
56174;BME280;42058;52.308;20.924;2022-09-17T03:56:43;99313.52;;;10.49;100.00
56174;BME280;42058;52.308;20.924;2022-09-17T03:59:09;99309.66;;;10.48;100.00
56174;BME280;42058;52.308;20.924;2022-09-17T04:01:35;99321.94;;;10.47;100.00
56174;BME280;42058;52.308;20.924;2022-09-17T04:04:02;99322.94;;;10.45;100.00
56174;BME280;42058;52.308;20.924;2022-09-17T04:06:28;99319.95;;;10.42;100.00
56174;BME280;42058;52.308;20.924;2022-09-17T04:08:54;99313.38;;;10.42;100.00
56174;BME280;42058;52.308;20.924;2022-09-17T04:11:22;99308.13;;;10.42;100.00
56174;BME280;42058;52.308;20.924;2022-09-17T04:13:48;99314.27;;;10.43;100.00
56174;BME280;42058;52.308;20.924;2022-09-17T04:16:14;99309.84;;;10.43;100.00
56174;BME280;42058;52.308;20.924;2022-09-17T04:18:40;99307.75;;;10.41;100.00
56174;BME280;42058;52.308;20.924;2022-09-17T04:21:06;99307.81;;;10.39;100.00
56174;BME280;42058;52.308;20.924;2022-09-17T04:23:32;99313.54;;;10.39;100.00
56174;BME280;42058;52.308;20.924;2022-09-17T04:25:58;99311.45;;;10.37;100.00
56174;BME280;42058;52.308;20.924;2022-09-17T04:28:25;99312.35;;;10.36;100.00
56174;BME280;42058;52.308;20.924;2022-09-17T04:30:51;99312.76;;;10.37;100.00
56174;BME280;42058;52.308;20.924;2022-09-17T04:33:17;99318.08;;;10.35;100.00
56174;BME280;42058;52.308;20.924;2022-09-17T04:35:44;99316.30;;;10.36;100.00
56174;BME280;42058;52.308;20.924;2022-09-17T04:38:10;99321.96;;;10.37;100.00
56174;BME280;42058;52.308;20.924;2022-09-17T04:40:39;99325.44;;;10.37;100.00
56174;BME280;42058;52.308;20.924;2022-09-17T04:43:07;99324.19;;;10.36;100.00
56174;BME280;42058;52.308;20.924;2022-09-17T04:45:35;99323.34;;;10.35;100.00
56174;BME280;42058;52.308;20.924;2022-09-17T04:48:01;99323.46;;;10.32;100.00
56174;BME280;42058;52.308;20.924;2022-09-17T04:50:28;99322.14;;;10.32;100.00
56174;BME280;42058;52.308;20.924;2022-09-17T04:52:54;99309.47;;;10.32;100.00
56174;BME280;42058;52.308;20.924;2022-09-17T04:55:20;99312.03;;;10.33;100.00
56174;BME280;42058;52.308;20.924;2022-09-17T04:57:52;99317.30;;;10.33;100.00
56174;BME280;42058;52.308;20.924;2022-09-17T05:00:16;99315.45;;;10.35;100.00
56174;BME280;42058;52.308;20.924;2022-09-17T05:02:45;99323.28;;;10.37;100.00
56174;BME280;42058;52.308;20.924;2022-09-17T05:05:13;99325.38;;;10.39;100.00
56174;BME280;42058;52.308;20.924;2022-09-17T05:07:40;99321.96;;;10.37;100.00
56174;BME280;42058;52.308;20.924;2022-09-17T05:10:08;99319.64;;;10.39;100.00
56174;BME280;42058;52.308;20.924;2022-09-17T05:12:35;99324.06;;;10.39;100.00
56174;BME280;42058;52.308;20.924;2022-09-17T05:15:02;99322.28;;;10.39;100.00
56174;BME280;42058;52.308;20.924;2022-09-17T05:17:29;99321.80;;;10.40;100.00
56174;BME280;42058;52.308;20.924;2022-09-17T05:19:55;99332.20;;;10.43;100.00
56174;BME280;42058;52.308;20.924;2022-09-17T05:22:21;99329.52;;;10.45;100.00
56174;BME280;42058;52.308;20.924;2022-09-17T05:24:47;99336.81;;;10.48;100.00
56174;BME280;42058;52.308;20.924;2022-09-17T05:27:13;99339.22;;;10.53;100.00
56174;BME280;42058;52.308;20.924;2022-09-17T05:29:39;99343.52;;;10.55;100.00
56174;BME280;42058;52.308;20.924;2022-09-17T05:32:06;99348.12;;;10.61;100.00
56174;BME280;42058;52.308;20.924;2022-09-17T05:34:32;99337.91;;;10.63;100.00
56174;BME280;42058;52.308;20.924;2022-09-17T05:36:58;99337.72;;;10.68;100.00
56174;BME280;42058;52.308;20.924;2022-09-17T05:39:25;99334.92;;;10.71;100.00
56174;BME280;42058;52.308;20.924;2022-09-17T05:41:52;99342.16;;;10.76;100.00
56174;BME280;42058;52.308;20.924;2022-09-17T05:44:18;99337.92;;;10.82;100.00
56174;BME280;42058;52.308;20.924;2022-09-17T05:46:45;99335.10;;;10.87;100.00
56174;BME280;42058;52.308;20.924;2022-09-17T05:49:15;99326.61;;;10.90;100.00
56174;BME280;42058;52.308;20.924;2022-09-17T05:51:41;99328.23;;;10.93;100.00
56174;BME280;42058;52.308;20.924;2022-09-17T05:54:07;99334.98;;;10.99;100.00
56174;BME280;42058;52.308;20.924;2022-09-17T05:56:33;99324.73;;;11.03;100.00
56174;BME280;42058;52.308;20.924;2022-09-17T05:59:00;99329.70;;;11.09;100.00
56174;BME280;42058;52.308;20.924;2022-09-17T06:01:26;99327.59;;;11.17;100.00
56174;BME280;42058;52.308;20.924;2022-09-17T06:03:52;99322.66;;;11.28;100.00
56174;BME280;42058;52.308;20.924;2022-09-17T06:06:18;99323.00;;;11.40;100.00
56174;BME280;42058;52.308;20.924;2022-09-17T06:08:44;99309.63;;;11.53;100.00
56174;BME280;42058;52.308;20.924;2022-09-17T06:11:10;99308.49;;;11.67;100.00
56174;BME280;42058;52.308;20.924;2022-09-17T06:13:36;99305.19;;;11.81;100.00
56174;BME280;42058;52.308;20.924;2022-09-17T06:16:03;99293.97;;;11.95;100.00
56174;BME280;42058;52.308;20.924;2022-09-17T06:18:30;99296.39;;;12.08;100.00
56174;BME280;42058;52.308;20.924;2022-09-17T06:20:59;99303.66;;;12.21;100.00
56174;BME280;42058;52.308;20.924;2022-09-17T06:23:27;99295.59;;;12.33;100.00
56174;BME280;42058;52.308;20.924;2022-09-17T06:26:00;99302.95;;;12.43;100.00
56174;BME280;42058;52.308;20.924;2022-09-17T06:28:28;99297.63;;;12.52;100.00
56174;BME280;42058;52.308;20.924;2022-09-17T06:30:58;99295.86;;;12.61;100.00
56174;BME280;42058;52.308;20.924;2022-09-17T06:33:30;99293.17;;;12.70;100.00
56174;BME280;42058;52.308;20.924;2022-09-17T06:35:58;99292.39;;;12.77;100.00
56174;BME280;42058;52.308;20.924;2022-09-17T06:38:26;99287.80;;;12.80;100.00
56174;BME280;42058;52.308;20.924;2022-09-17T06:40:53;99287.53;;;12.85;100.00
56174;BME280;42058;52.308;20.924;2022-09-17T06:43:21;99281.33;;;12.86;100.00
56174;BME280;42058;52.308;20.924;2022-09-17T06:45:56;99278.97;;;12.88;100.00
56174;BME280;42058;52.308;20.924;2022-09-17T06:48:24;99276.09;;;12.93;100.00
56174;BME280;42058;52.308;20.924;2022-09-17T06:50:53;99280.74;;;12.97;100.00
56174;BME280;42058;52.308;20.924;2022-09-17T06:53:21;99279.82;;;12.98;100.00
56174;BME280;42058;52.308;20.924;2022-09-17T06:55:49;99282.75;;;13.00;100.00
56174;BME280;42058;52.308;20.924;2022-09-17T06:58:15;99280.59;;;13.00;100.00
56174;BME280;42058;52.308;20.924;2022-09-17T07:00:42;99284.44;;;13.01;100.00
56174;BME280;42058;52.308;20.924;2022-09-17T07:03:08;99288.32;;;13.03;100.00
56174;BME280;42058;52.308;20.924;2022-09-17T07:05:42;99290.80;;;13.06;100.00
56174;BME280;42058;52.308;20.924;2022-09-17T07:08:05;99290.64;;;13.09;100.00
56174;BME280;42058;52.308;20.924;2022-09-17T07:10:31;99291.41;;;13.11;100.00
56174;BME280;42058;52.308;20.924;2022-09-17T07:12:57;99299.94;;;13.16;100.00
56174;BME280;42058;52.308;20.924;2022-09-17T07:15:24;99308.83;;;13.22;100.00
56174;BME280;42058;52.308;20.924;2022-09-17T07:17:50;99308.27;;;13.24;100.00
56174;BME280;42058;52.308;20.924;2022-09-17T07:20:16;99308.11;;;13.27;100.00
56174;BME280;42058;52.308;20.924;2022-09-17T07:22:42;99311.12;;;13.28;100.00
56174;BME280;42058;52.308;20.924;2022-09-17T07:25:09;99317.72;;;13.28;100.00
56174;BME280;42058;52.308;20.924;2022-09-17T07:27:35;99313.76;;;13.28;100.00
56174;BME280;42058;52.308;20.924;2022-09-17T07:30:01;99319.44;;;13.30;100.00
56174;BME280;42058;52.308;20.924;2022-09-17T07:32:29;99322.87;;;13.32;100.00
56174;BME280;42058;52.308;20.924;2022-09-17T07:34:57;99327.60;;;13.34;100.00
56174;BME280;42058;52.308;20.924;2022-09-17T07:37:24;99328.36;;;13.36;100.00
56174;BME280;42058;52.308;20.924;2022-09-17T07:39:58;99322.16;;;13.37;100.00
56174;BME280;42058;52.308;20.924;2022-09-17T07:42:21;99326.12;;;13.37;100.00
56174;BME280;42058;52.308;20.924;2022-09-17T07:44:54;99328.20;;;13.39;100.00
56174;BME280;42058;52.308;20.924;2022-09-17T07:47:20;99333.09;;;13.38;100.00
56174;BME280;42058;52.308;20.924;2022-09-17T07:49:47;99331.77;;;13.38;100.00
56174;BME280;42058;52.308;20.924;2022-09-17T07:52:13;99338.77;;;13.39;100.00
56174;BME280;42058;52.308;20.924;2022-09-17T07:54:39;99340.09;;;13.39;100.00
56174;BME280;42058;52.308;20.924;2022-09-17T07:57:05;99341.81;;;13.40;100.00
56174;BME280;42058;52.308;20.924;2022-09-17T07:59:31;99343.50;;;13.41;99.95
56174;BME280;42058;52.308;20.924;2022-09-17T08:01:57;99337.30;;;13.42;100.00
56174;BME280;42058;52.308;20.924;2022-09-17T08:04:23;99346.06;;;13.42;100.00
56174;BME280;42058;52.308;20.924;2022-09-17T08:06:49;99342.94;;;13.43;100.00
56174;BME280;42058;52.308;20.924;2022-09-17T08:09:16;99345.98;;;13.44;100.00
56174;BME280;42058;52.308;20.924;2022-09-17T08:11:44;99344.74;;;13.42;100.00
56174;BME280;42058;52.308;20.924;2022-09-17T08:14:12;99352.19;;;13.43;100.00
56174;BME280;42058;52.308;20.924;2022-09-17T08:16:39;99353.52;;;13.43;100.00
56174;BME280;42058;52.308;20.924;2022-09-17T08:19:06;99351.43;;;13.41;100.00
56174;BME280;42058;52.308;20.924;2022-09-17T08:21:34;99352.19;;;13.43;100.00
56174;BME280;42058;52.308;20.924;2022-09-17T08:24:00;99348.62;;;13.44;100.00
56174;BME280;42058;52.308;20.924;2022-09-17T08:26:26;99349.39;;;13.46;100.00
56174;BME280;42058;52.308;20.924;2022-09-17T08:28:53;99350.16;;;13.48;100.00
56174;BME280;42058;52.308;20.924;2022-09-17T08:31:23;99346.59;;;13.49;100.00
56174;BME280;42058;52.308;20.924;2022-09-17T08:33:51;99364.97;;;13.51;100.00
56174;BME280;42058;52.308;20.924;2022-09-17T08:36:18;99364.53;;;13.51;100.00
56174;BME280;42058;52.308;20.924;2022-09-17T08:38:50;99363.58;;;13.52;100.00
56174;BME280;42058;52.308;20.924;2022-09-17T08:41:23;99362.25;;;13.52;100.00
56174;BME280;42058;52.308;20.924;2022-09-17T08:44:16;99368.14;;;13.57;100.00
56174;BME280;42058;52.308;20.924;2022-09-17T08:47:12;99376.67;;;13.62;100.00
56174;BME280;42058;52.308;20.924;2022-09-17T08:52:29;99373.11;;;13.71;100.00
56174;BME280;42058;52.308;20.924;2022-09-17T08:55:21;99379.76;;;13.78;100.00
56174;BME280;42058;52.308;20.924;2022-09-17T09:03:57;99361.09;;;13.81;99.75
56174;BME280;42058;52.308;20.924;2022-09-17T09:06:34;99361.09;;;13.81;99.75
56174;BME280;42058;52.308;20.924;2022-09-17T09:09:14;99361.09;;;13.81;100.00
56174;BME280;42058;52.308;20.924;2022-09-17T09:11:42;99357.52;;;13.82;100.00
56174;BME280;42058;52.308;20.924;2022-09-17T09:14:21;99357.88;;;13.83;99.98
56174;BME280;42058;52.308;20.924;2022-09-17T09:16:50;99363.92;;;13.85;99.66
56174;BME280;42058;52.308;20.924;2022-09-17T09:19:29;99359.20;;;13.83;99.54
56174;BME280;42058;52.308;20.924;2022-09-17T09:22:11;99372.45;;;13.90;99.23
56174;BME280;42058;52.308;20.924;2022-09-17T09:25:25;99366.61;;;13.92;98.91
56174;BME280;42058;52.308;20.924;2022-09-17T09:27:22;99369.65;;;13.93;98.89
56174;BME280;42058;52.308;20.924;2022-09-17T09:29:58;99375.78;;;13.94;98.91
56174;BME280;42058;52.308;20.924;2022-09-17T09:32:42;99380.70;;;13.93;98.40
56174;BME280;42058;52.308;20.924;2022-09-17T09:35:20;99373.22;;;13.92;98.00
56174;BME280;42058;52.308;20.924;2022-09-17T09:37:50;99380.39;;;13.90;97.98
56174;BME280;42058;52.308;20.924;2022-09-17T09:43:00;99377.38;;;13.89;98.30
56174;BME280;42058;52.308;20.924;2022-09-17T09:45:36;99375.02;;;13.92;98.53
56174;BME280;42058;52.308;20.924;2022-09-17T09:57:02;99384.92;;;13.88;99.53
56174;BME280;42058;52.308;20.924;2022-09-17T09:59:31;99384.33;;;13.83;99.93
56174;BME280;42058;52.308;20.924;2022-09-17T10:01:58;99373.94;;;13.80;100.00
56174;BME280;42058;52.308;20.924;2022-09-17T10:04:26;99372.14;;;13.80;100.00
56174;BME280;42058;52.308;20.924;2022-09-17T10:07:04;99371.58;;;13.82;100.00
56174;BME280;42058;52.308;20.924;2022-09-17T10:09:35;99371.58;;;13.82;100.00
56174;BME280;42058;52.308;20.924;2022-09-17T10:14:45;99366.80;;;13.89;100.00
56174;BME280;42058;52.308;20.924;2022-09-17T10:17:17;99366.05;;;13.94;100.00
56174;BME280;42058;52.308;20.924;2022-09-17T10:22:37;99370.80;;;14.03;100.00
56174;BME280;42058;52.308;20.924;2022-09-17T10:25:06;99365.34;;;14.07;100.00
56174;BME280;42058;52.308;20.924;2022-09-17T10:27:59;99375.78;;;14.17;100.00
56174;BME280;42058;52.308;20.924;2022-09-17T10:30:31;99386.20;;;14.27;100.00
56174;BME280;42058;52.308;20.924;2022-09-17T10:33:16;99381.41;;;14.34;100.00
56174;BME280;42058;52.308;20.924;2022-09-17T10:35:59;99392.49;;;14.40;100.00
56174;BME280;42058;52.308;20.924;2022-09-17T10:38:39;99392.49;;;14.40;100.00
56174;BME280;42058;52.308;20.924;2022-09-17T10:43:42;99377.01;;;14.56;100.00
56174;BME280;42058;52.308;20.924;2022-09-17T10:46:14;99377.01;;;14.56;100.00
56174;BME280;42058;52.308;20.924;2022-09-17T10:49:05;99379.44;;;14.68;100.00
56174;BME280;42058;52.308;20.924;2022-09-17T10:51:42;99379.44;;;14.68;100.00
56174;BME280;42058;52.308;20.924;2022-09-17T10:54:17;99383.12;;;14.72;100.00
56174;BME280;42058;52.308;20.924;2022-09-17T10:56:53;99397.42;;;14.77;99.35
56174;BME280;42058;52.308;20.924;2022-09-17T10:59:48;99397.42;;;14.77;99.35
56174;BME280;42058;52.308;20.924;2022-09-17T11:08:47;99403.36;;;14.66;96.92
56174;BME280;42058;52.308;20.924;2022-09-17T11:11:53;99417.16;;;14.64;96.58
56174;BME280;42058;52.308;20.924;2022-09-17T11:17:58;99409.56;;;14.58;96.73
56174;BME280;42058;52.308;20.924;2022-09-17T11:20:45;99398.58;;;14.57;97.06
56174;BME280;42058;52.308;20.924;2022-09-17T11:26:38;99390.89;;;14.75;98.33
56174;BME280;42058;52.308;20.924;2022-09-17T11:29:47;99390.89;;;14.75;98.33
56174;BME280;42058;52.308;20.924;2022-09-17T11:35:19;99385.61;;;14.90;98.05
56174;BME280;42058;52.308;20.924;2022-09-17T11:40:57;99375.37;;;15.12;97.96
56174;BME280;42058;52.308;20.924;2022-09-17T11:43:59;99372.81;;;15.18;96.87
56174;BME280;42058;52.308;20.924;2022-09-17T11:49:32;99373.11;;;15.28;95.23
56174;BME280;42058;52.308;20.924;2022-09-17T11:57:38;99379.34;;;15.27;94.33
56174;BME280;42058;52.308;20.924;2022-09-17T12:00:14;99378.41;;;15.28;94.69
56174;BME280;42058;52.308;20.924;2022-09-17T12:02:51;99384.64;;;15.27;95.06
56174;BME280;42058;52.308;20.924;2022-09-17T12:05:34;99379.73;;;15.28;94.22
56174;BME280;42058;52.308;20.924;2022-09-17T12:08:21;99376.13;;;15.29;93.42
56174;BME280;42058;52.308;20.924;2022-09-17T12:13:53;99371.30;;;15.28;92.55
56174;BME280;42058;52.308;20.924;2022-09-17T12:16:40;99368.75;;;15.27;92.24
56174;BME280;42058;52.308;20.924;2022-09-17T12:22:12;99374.05;;;15.27;92.11
56174;BME280;42058;52.308;20.924;2022-09-17T12:24:41;99368.27;;;15.27;92.79
56174;BME280;42058;52.308;20.924;2022-09-17T12:30:10;99369.02;;;15.29;93.13
56174;BME280;42058;52.308;20.924;2022-09-17T12:38:27;99380.58;;;15.35;93.52
56174;BME280;42058;52.308;20.924;2022-09-17T12:49:49;99392.67;;;15.40;92.91
56174;BME280;42058;52.308;20.924;2022-09-17T12:58:22;99372.89;;;15.38;94.04
56174;BME280;42058;52.308;20.924;2022-09-17T13:01:02;99364.09;;;15.37;94.12
56174;BME280;42058;52.308;20.924;2022-09-17T13:03:41;99366.27;;;15.38;94.35
56174;BME280;42058;52.308;20.924;2022-09-17T13:06:14;99357.38;;;15.39;94.21
56174;BME280;42058;52.308;20.924;2022-09-17T13:14:50;99361.52;;;15.43;94.93
56174;BME280;42058;52.308;20.924;2022-09-17T13:17:36;99358.88;;;15.43;94.73
56174;BME280;42058;52.308;20.924;2022-09-17T13:20:26;99363.99;;;15.46;95.09
56174;BME280;42058;52.308;20.924;2022-09-17T13:23:01;99370.14;;;15.47;94.46
56174;BME280;42058;52.308;20.924;2022-09-17T13:25:26;99363.99;;;15.46;94.01
56174;BME280;42058;52.308;20.924;2022-09-17T13:28:07;99369.30;;;15.46;93.74
56174;BME280;42058;52.308;20.924;2022-09-17T13:30:57;99359.63;;;15.45;93.45
56174;BME280;42058;52.308;20.924;2022-09-17T13:36:50;99373.06;;;15.42;93.08
56174;BME280;42058;52.308;20.924;2022-09-17T13:42:26;99369.39;;;15.37;93.44
56174;BME280;42058;52.308;20.924;2022-09-17T13:45:03;99373.86;;;15.37;93.72
56174;BME280;42058;52.308;20.924;2022-09-17T13:47:39;99356.23;;;15.36;93.61
56174;BME280;42058;52.308;20.924;2022-09-17T13:55:48;99370.72;;;15.37;93.88
56174;BME280;42058;52.308;20.924;2022-09-17T13:58:29;99372.05;;;15.37;93.88
56174;BME280;42058;52.308;20.924;2022-09-17T14:01:02;99370.72;;;15.37;93.82
56174;BME280;42058;52.308;20.924;2022-09-17T14:16:46;99343.07;;;15.34;94.58
56174;BME280;42058;52.308;20.924;2022-09-17T14:27:40;99342.48;;;15.44;95.19
56174;BME280;42058;52.308;20.924;2022-09-17T14:30:28;99344.56;;;15.46;95.37
56174;BME280;42058;52.308;20.924;2022-09-17T14:33:15;99347.12;;;15.47;95.02
56174;BME280;42058;52.308;20.924;2022-09-17T14:35:48;99355.46;;;15.48;94.35
56174;BME280;42058;52.308;20.924;2022-09-17T14:38:18;99345.79;;;15.47;93.87
56174;BME280;42058;52.308;20.924;2022-09-17T14:41:06;99348.66;;;15.44;93.55
56174;BME280;42058;52.308;20.924;2022-09-17T14:51:50;99356.72;;;15.35;94.29
56174;BME280;42058;52.308;20.924;2022-09-17T14:54:23;99351.52;;;15.34;94.23
56174;BME280;42058;52.308;20.924;2022-09-17T14:59:37;99356.62;;;15.37;94.48
56174;BME280;42058;52.308;20.924;2022-09-17T15:05:28;99359.27;;;15.37;94.19
56174;BME280;42058;52.308;20.924;2022-09-17T15:13:26;99361.36;;;15.32;94.49
56174;BME280;42058;52.308;20.924;2022-09-17T15:16:23;99358.71;;;15.32;94.73
56174;BME280;42058;52.308;20.924;2022-09-17T15:18:53;99364.47;;;15.31;95.16
56174;BME280;42058;52.308;20.924;2022-09-17T15:27:39;99349.44;;;15.32;95.32
56174;BME280;42058;52.308;20.924;2022-09-17T15:30:19;99356.33;;;15.34;95.65
56174;BME280;42058;52.308;20.924;2022-09-17T15:32:52;99346.30;;;15.32;95.09
56174;BME280;42058;52.308;20.924;2022-09-17T15:35:27;99346.30;;;15.32;95.12
56174;BME280;42058;52.308;20.924;2022-09-17T15:37:57;99347.36;;;15.30;94.76
56174;BME280;42058;52.308;20.924;2022-09-17T15:40:28;99346.61;;;15.28;95.09
56174;BME280;42058;52.308;20.924;2022-09-17T15:43:16;99341.49;;;15.25;95.33
56174;BME280;42058;52.308;20.924;2022-09-17T15:45:45;99336.56;;;15.18;95.25
56174;BME280;42058;52.308;20.924;2022-09-17T15:51:02;99353.91;;;15.17;95.31
56174;BME280;42058;52.308;20.924;2022-09-17T15:53:33;99355.89;;;15.13;95.56
56174;BME280;42058;52.308;20.924;2022-09-17T15:56:15;99348.04;;;15.12;95.73
56174;BME280;42058;52.308;20.924;2022-09-17T15:58:54;99355.50;;;15.12;95.92
56174;BME280;42058;52.308;20.924;2022-09-17T16:01:48;99355.15;;;15.11;96.16
56174;BME280;42058;52.308;20.924;2022-09-17T16:04:06;99355.50;;;15.12;96.55
56174;BME280;42058;52.308;20.924;2022-09-17T16:06:34;99370.66;;;15.10;96.57
56174;BME280;42058;52.308;20.924;2022-09-17T16:09:34;99375.20;;;15.08;96.52
56174;BME280;42058;52.308;20.924;2022-09-17T16:11:51;99390.52;;;15.03;95.97
56174;BME280;42058;52.308;20.924;2022-09-17T16:14:17;99390.52;;;15.03;95.97
56174;BME280;42058;52.308;20.924;2022-09-17T16:16:43;99393.35;;;15.00;96.24
56174;BME280;42058;52.308;20.924;2022-09-17T16:19:10;99393.56;;;14.97;96.77
56174;BME280;42058;52.308;20.924;2022-09-17T16:21:37;99386.72;;;14.93;96.75